createdAt,value
2022-08-26T00:01:56.666Z,99.90
2022-08-26T00:04:25.444Z,99.90
2022-08-26T00:06:56.454Z,99.90
2022-08-26T00:09:24.593Z,99.90
2022-08-26T00:11:52.000Z,99.90
2022-08-26T00:14:18.847Z,99.90
2022-08-26T00:16:47.852Z,99.90
2022-08-26T00:19:17.939Z,99.90
2022-08-26T00:21:46.330Z,99.90
2022-08-26T00:24:16.756Z,99.90
2022-08-26T00:26:44.174Z,99.90
2022-08-26T00:29:12.337Z,99.90
2022-08-26T00:31:40.780Z,99.90
2022-08-26T00:34:09.439Z,99.90
2022-08-26T00:36:37.089Z,99.90
2022-08-26T00:39:07.112Z,99.90
2022-08-26T00:41:35.718Z,99.90
2022-08-26T00:44:02.740Z,99.90
2022-08-26T00:46:33.696Z,99.90
2022-08-26T00:49:11.736Z,99.90
2022-08-26T00:51:49.295Z,99.90
2022-08-26T00:54:19.571Z,99.90
2022-08-26T00:56:50.457Z,99.90
2022-08-26T00:59:18.450Z,99.90
2022-08-26T01:01:46.275Z,99.90
2022-08-26T01:04:19.410Z,99.90
2022-08-26T01:06:48.582Z,99.90
2022-08-26T01:09:16.543Z,99.90
2022-08-26T01:11:44.614Z,99.90
2022-08-26T01:14:14.338Z,99.90
2022-08-26T01:16:42.381Z,99.90
2022-08-26T01:19:38.203Z,99.90
2022-08-26T01:22:16.672Z,99.90
2022-08-26T01:24:43.777Z,99.90
2022-08-26T01:27:14.543Z,99.90
2022-08-26T01:29:44.459Z,99.90
2022-08-26T01:32:16.096Z,99.90
2022-08-26T01:34:43.083Z,99.90
2022-08-26T01:37:16.015Z,99.90
2022-08-26T01:39:44.973Z,99.90
2022-08-26T01:42:15.049Z,99.90
2022-08-26T01:44:53.766Z,99.90
2022-08-26T01:47:23.866Z,99.90
2022-08-26T01:49:54.537Z,99.90
2022-08-26T01:52:28.123Z,99.90
2022-08-26T01:54:57.404Z,99.90
2022-08-26T01:57:25.789Z,99.90
2022-08-26T01:59:57.074Z,99.90
2022-08-26T02:02:24.673Z,99.90
2022-08-26T02:04:59.786Z,99.90
2022-08-26T02:07:27.336Z,99.90
2022-08-26T02:09:54.839Z,99.90
2022-08-26T02:12:22.270Z,99.90
2022-08-26T02:14:54.133Z,99.90
2022-08-26T02:17:26.131Z,99.90
2022-08-26T02:19:53.630Z,99.90
2022-08-26T02:22:22.444Z,99.90
2022-08-26T02:24:54.996Z,99.90
2022-08-26T02:27:28.058Z,99.90
2022-08-26T02:30:08.226Z,99.90
2022-08-26T02:32:35.230Z,99.90
2022-08-26T02:35:02.262Z,99.90
2022-08-26T02:37:32.738Z,99.90
2022-08-26T02:40:01.709Z,99.90
2022-08-26T02:42:29.967Z,99.90
2022-08-26T02:44:56.877Z,99.90
2022-08-26T02:47:25.300Z,99.90
2022-08-26T02:49:55.948Z,99.90
2022-08-26T02:52:23.207Z,99.90
2022-08-26T02:54:50.083Z,99.90
2022-08-26T02:57:17.500Z,99.90
2022-08-26T02:59:44.420Z,99.90
2022-08-26T03:02:12.341Z,99.90
2022-08-26T03:04:40.250Z,99.90
2022-08-26T03:07:07.669Z,99.90
2022-08-26T03:09:35.564Z,99.90
2022-08-26T03:12:02.587Z,99.90
2022-08-26T03:14:29.813Z,99.90
2022-08-26T03:16:56.606Z,99.90
2022-08-26T03:19:25.607Z,99.90
2022-08-26T03:21:57.916Z,99.90
2022-08-26T03:24:26.391Z,99.90
2022-08-26T03:26:53.301Z,99.90
2022-08-26T03:29:39.680Z,99.90
2022-08-26T03:32:06.783Z,99.90
2022-08-26T03:34:34.393Z,99.90
2022-08-26T03:37:01.766Z,99.90
2022-08-26T03:39:31.561Z,99.90
2022-08-26T03:42:00.088Z,99.90
2022-08-26T03:44:27.066Z,99.90
2022-08-26T03:46:54.628Z,99.90
2022-08-26T03:49:22.285Z,99.90
2022-08-26T03:51:50.089Z,99.90
2022-08-26T03:54:17.922Z,99.90
2022-08-26T03:56:46.579Z,99.90
2022-08-26T03:59:16.465Z,99.90
2022-08-26T04:01:43.442Z,99.90
2022-08-26T04:04:15.537Z,99.90
2022-08-26T04:06:44.705Z,99.90
2022-08-26T04:09:20.746Z,99.90
2022-08-26T04:11:50.490Z,99.90
2022-08-26T04:14:24.485Z,99.90
2022-08-26T04:16:52.631Z,99.90
2022-08-26T04:19:23.406Z,99.90
2022-08-26T04:21:53.099Z,99.90
2022-08-26T04:24:22.907Z,99.90
2022-08-26T04:26:50.387Z,99.90
2022-08-26T04:29:21.604Z,99.90
2022-08-26T04:31:49.189Z,99.90
2022-08-26T04:34:16.359Z,99.90
2022-08-26T04:36:44.261Z,99.90
2022-08-26T04:39:12.521Z,99.90
2022-08-26T04:41:42.807Z,99.90
2022-08-26T04:44:09.750Z,99.90
2022-08-26T04:46:43.792Z,99.90
2022-08-26T04:49:12.485Z,99.90
2022-08-26T04:51:40.107Z,99.90
2022-08-26T04:54:07.586Z,99.90
2022-08-26T04:56:39.946Z,99.90
2022-08-26T04:59:16.660Z,99.90
2022-08-26T05:01:48.576Z,99.90
2022-08-26T05:04:16.573Z,99.90
2022-08-26T05:06:46.798Z,99.90
2022-08-26T05:09:15.198Z,99.90
2022-08-26T05:11:42.400Z,99.90
2022-08-26T05:14:09.756Z,99.90
2022-08-26T05:16:37.735Z,99.90
2022-08-26T05:19:08.523Z,99.90
2022-08-26T05:21:36.721Z,99.90
2022-08-26T05:24:04.685Z,99.90
2022-08-26T05:26:32.022Z,99.90
2022-08-26T05:28:59.109Z,99.90
2022-08-26T05:31:30.217Z,99.90
2022-08-26T05:34:03.646Z,99.90
2022-08-26T05:36:33.533Z,99.90
2022-08-26T05:39:01.633Z,99.90
2022-08-26T05:41:34.647Z,99.90
2022-08-26T05:44:07.694Z,99.90
2022-08-26T05:46:37.306Z,99.90
2022-08-26T05:49:05.843Z,99.90
2022-08-26T05:51:33.152Z,99.90
2022-08-26T05:54:03.608Z,99.90
2022-08-26T05:56:30.780Z,99.90
2022-08-26T05:58:59.779Z,99.90
2022-08-26T06:01:28.335Z,99.90
2022-08-26T06:04:01.711Z,99.90
2022-08-26T06:06:34.608Z,99.90
2022-08-26T06:09:04.431Z,99.90
2022-08-26T06:11:32.578Z,99.90
2022-08-26T06:14:03.909Z,99.90
2022-08-26T06:16:33.483Z,99.90
2022-08-26T06:19:02.906Z,99.90
2022-08-26T06:21:35.935Z,99.90
2022-08-26T06:24:27.266Z,99.90
2022-08-26T06:27:01.627Z,99.90
2022-08-26T06:29:31.060Z,99.90
2022-08-26T06:31:58.741Z,99.90
2022-08-26T06:34:30.271Z,99.90
2022-08-26T06:37:01.305Z,99.90
2022-08-26T06:39:30.915Z,99.90
2022-08-26T06:41:59.024Z,99.90
2022-08-26T06:44:26.777Z,99.90
2022-08-26T06:46:53.744Z,99.90
2022-08-26T06:49:26.689Z,99.90
2022-08-26T06:51:54.876Z,99.90
2022-08-26T06:54:22.081Z,99.90
2022-08-26T06:56:49.579Z,99.90
2022-08-26T06:59:16.540Z,99.90
2022-08-26T07:01:45.073Z,99.90
2022-08-26T07:04:15.762Z,99.90
2022-08-26T07:06:49.018Z,99.90
2022-08-26T07:09:16.936Z,99.90
2022-08-26T07:11:44.853Z,99.90
2022-08-26T07:14:12.983Z,99.90
2022-08-26T07:16:41.311Z,99.90
2022-08-26T07:19:11.267Z,99.90
2022-08-26T07:21:41.571Z,99.90
2022-08-26T07:24:09.411Z,99.90
2022-08-26T07:26:39.142Z,99.90
2022-08-26T07:29:12.469Z,99.90
2022-08-26T07:31:42.371Z,99.90
2022-08-26T07:34:10.878Z,99.90
2022-08-26T07:36:37.765Z,99.90
2022-08-26T07:39:05.898Z,99.90
2022-08-26T07:41:33.438Z,99.90
2022-08-26T07:44:01.067Z,99.90
2022-08-26T07:46:30.128Z,99.90
2022-08-26T07:48:57.904Z,99.90
2022-08-26T07:51:26.136Z,99.90
2022-08-26T07:53:54.333Z,99.90
2022-08-26T07:56:23.557Z,99.90
2022-08-26T07:58:54.098Z,99.90
2022-08-26T08:01:23.816Z,99.90
2022-08-26T08:03:51.987Z,99.90
2022-08-26T08:06:27.403Z,99.40
2022-08-26T08:08:55.738Z,98.90
2022-08-26T08:11:22.899Z,99.90
2022-08-26T08:13:56.024Z,99.20
2022-08-26T08:16:32.375Z,99.90
2022-08-26T08:19:00.666Z,99.90
2022-08-26T08:21:30.287Z,99.60
2022-08-26T08:23:58.033Z,98.40
2022-08-26T08:26:26.137Z,97.10
2022-08-26T08:28:57.879Z,96.90
2022-08-26T08:31:55.978Z,98.00
2022-08-26T08:34:19.147Z,97.70
2022-08-26T08:36:48.624Z,97.40
2022-08-26T08:39:17.675Z,98.10
2022-08-26T08:42:08.976Z,97.10
2022-08-26T08:44:44.290Z,96.30
2022-08-26T08:47:33.928Z,96.40
2022-08-26T08:50:22.702Z,97.00
2022-08-26T08:52:56.594Z,97.40
2022-08-26T08:55:30.807Z,98.30
2022-08-26T08:58:13.400Z,98.50
2022-08-26T09:00:52.919Z,97.10
2022-08-26T09:04:09.739Z,95.10
2022-08-26T09:06:38.580Z,94.40
2022-08-26T09:09:08.873Z,95.30
2022-08-26T09:11:36.245Z,95.10
2022-08-26T09:14:03.187Z,96.20
2022-08-26T09:16:41.474Z,95.90
2022-08-26T09:19:20.388Z,95.90
2022-08-26T09:21:58.445Z,95.60
2022-08-26T09:24:28.612Z,96.20
2022-08-26T09:26:58.297Z,95.80
2022-08-26T09:29:26.558Z,96.40
2022-08-26T09:32:22.071Z,96.50
2022-08-26T09:34:57.348Z,95.40
2022-08-26T09:37:53.544Z,95.40
2022-08-26T09:40:35.507Z,94.90
2022-08-26T09:43:22.862Z,94.70
2022-08-26T09:46:15.080Z,94.50
2022-08-26T09:48:43.032Z,94.90
2022-08-26T09:51:26.308Z,95.30
2022-08-26T09:53:59.014Z,97.00
2022-08-26T09:56:26.079Z,95.50
2022-08-26T09:58:56.010Z,97.00
2022-08-26T10:01:55.766Z,95.00
2022-08-26T10:04:26.700Z,94.90
2022-08-26T10:06:57.913Z,95.20
2022-08-26T10:09:25.954Z,96.00
2022-08-26T10:12:02.496Z,95.90
2022-08-26T10:14:48.541Z,94.50
2022-08-26T10:17:40.359Z,93.80
2022-08-26T10:20:26.414Z,93.10
2022-08-26T10:22:57.841Z,91.70
2022-08-26T10:25:31.333Z,91.70
2022-08-26T10:28:12.701Z,93.20
2022-08-26T10:30:59.563Z,92.70
2022-08-26T10:33:26.471Z,92.30
2022-08-26T10:36:30.295Z,92.40
2022-08-26T10:39:01.810Z,92.30
2022-08-26T10:41:36.254Z,92.80
2022-08-26T10:44:05.995Z,92.50
2022-08-26T10:46:39.780Z,92.10
2022-08-26T10:49:15.404Z,92.00
2022-08-26T10:52:21.707Z,92.20
2022-08-26T10:55:20.558Z,93.00
2022-08-26T10:57:59.166Z,94.60
2022-08-26T11:00:58.345Z,91.50
2022-08-26T11:03:48.379Z,92.40
2022-08-26T11:06:23.325Z,93.50
2022-08-26T11:08:59.587Z,92.10
2022-08-26T11:11:48.226Z,91.40
2022-08-26T11:14:28.383Z,90.90
2022-08-26T11:16:58.627Z,91.20
2022-08-26T11:19:58.852Z,91.30
2022-08-26T11:22:34.975Z,90.70
2022-08-26T11:25:11.597Z,90.70
2022-08-26T11:27:40.060Z,91.70
2022-08-26T11:30:28.402Z,93.20
2022-08-26T11:32:57.695Z,93.00
2022-08-26T11:35:24.626Z,93.10
2022-08-26T11:37:57.360Z,93.40
2022-08-26T11:40:38.470Z,92.70
2022-08-26T11:43:21.528Z,93.50
2022-08-26T11:46:02.654Z,94.60
2022-08-26T11:48:39.161Z,96.00
2022-08-26T11:51:13.398Z,97.00
2022-08-26T11:53:44.646Z,98.60
2022-08-26T11:56:34.578Z,99.90
2022-08-26T11:59:15.638Z,99.90
2022-08-26T12:01:44.992Z,99.90
2022-08-26T12:04:34.033Z,99.90
2022-08-26T12:07:02.312Z,99.90
2022-08-26T12:09:35.908Z,99.90
2022-08-26T12:12:15.994Z,99.90
2022-08-26T12:14:43.605Z,99.90
2022-08-26T12:17:25.908Z,99.90
2022-08-26T12:19:52.687Z,99.90
2022-08-26T12:22:23.835Z,99.90
2022-08-26T12:24:58.670Z,99.90
2022-08-26T12:27:28.723Z,99.90
2022-08-26T12:30:09.572Z,99.90
2022-08-26T12:32:57.322Z,99.90
2022-08-26T12:35:24.853Z,99.90
2022-08-26T12:37:53.944Z,99.90
2022-08-26T12:40:40.971Z,99.90
2022-08-26T12:43:09.771Z,99.90
2022-08-26T12:45:43.894Z,99.90
2022-08-26T12:48:25.769Z,99.90
2022-08-26T12:50:53.261Z,99.90
2022-08-26T12:53:29.097Z,99.90
2022-08-26T12:55:58.841Z,99.90
2022-08-26T12:58:34.745Z,99.90
2022-08-26T13:01:04.474Z,99.90
2022-08-26T13:03:34.289Z,99.90
2022-08-26T13:06:28.285Z,99.90
2022-08-26T13:09:00.059Z,99.90
2022-08-26T13:11:40.575Z,99.90
2022-08-26T13:14:21.058Z,99.90
2022-08-26T13:16:50.991Z,99.90
2022-08-26T13:19:25.996Z,99.90
2022-08-26T13:21:55.826Z,99.90
2022-08-26T13:24:35.145Z,99.90
2022-08-26T13:27:02.853Z,99.90
2022-08-26T13:29:29.975Z,99.90
2022-08-26T13:31:58.635Z,99.90
2022-08-26T13:34:26.150Z,99.90
2022-08-26T13:36:54.660Z,99.90
2022-08-26T13:39:22.367Z,99.90
2022-08-26T13:41:49.451Z,99.90
2022-08-26T13:44:16.587Z,99.90
2022-08-26T13:49:15.849Z,99.90
2022-08-26T13:51:42.701Z,99.90
2022-08-26T13:54:09.669Z,99.90
2022-08-26T13:56:37.499Z,99.90
2022-08-26T13:59:05.738Z,99.90
2022-08-26T14:01:35.663Z,99.90
2022-08-26T14:04:03.158Z,99.90
2022-08-26T14:06:30.172Z,99.90
2022-08-26T14:08:57.328Z,99.90
2022-08-26T14:11:25.170Z,99.90
2022-08-26T14:13:52.391Z,99.90
2022-08-26T14:16:29.145Z,99.90
2022-08-26T14:18:56.165Z,99.90
2022-08-26T14:21:24.769Z,99.90
2022-08-26T14:23:52.539Z,99.90
2022-08-26T14:26:28.890Z,99.90
2022-08-26T14:28:58.169Z,99.90
2022-08-26T14:31:26.902Z,99.90
2022-08-26T14:33:55.019Z,99.90
2022-08-26T14:36:34.071Z,99.90
2022-08-26T14:39:12.515Z,99.90
2022-08-26T14:41:53.771Z,99.90
2022-08-26T14:44:23.708Z,99.90
2022-08-26T14:46:53.115Z,99.90
2022-08-26T14:49:22.196Z,99.90
2022-08-26T14:51:49.817Z,99.90
2022-08-26T14:54:18.241Z,99.90
2022-08-26T14:56:47.400Z,99.90
2022-08-26T14:59:17.455Z,99.90
2022-08-26T15:01:45.408Z,99.90
2022-08-26T15:04:12.677Z,99.90
2022-08-26T15:06:40.015Z,99.90
2022-08-26T15:09:07.332Z,99.90
2022-08-26T15:11:34.418Z,99.90
2022-08-26T15:14:02.615Z,99.90
2022-08-26T15:16:30.505Z,99.90
2022-08-26T15:18:57.972Z,99.90
2022-08-26T15:21:26.240Z,99.90
2022-08-26T15:23:54.124Z,99.90
2022-08-26T15:26:22.391Z,99.90
2022-08-26T15:28:49.938Z,99.90
2022-08-26T15:31:17.489Z,99.90
2022-08-26T15:33:44.904Z,99.90
2022-08-26T15:36:12.096Z,99.90
2022-08-26T15:38:41.332Z,99.90
2022-08-26T15:41:09.358Z,99.90
2022-08-26T15:43:37.724Z,99.90
2022-08-26T15:46:04.810Z,99.90
2022-08-26T15:48:31.847Z,99.90
2022-08-26T15:51:01.463Z,99.90
2022-08-26T15:53:31.313Z,99.90
2022-08-26T15:55:59.593Z,99.90
2022-08-26T15:58:28.368Z,99.90
2022-08-26T16:00:56.326Z,99.90
2022-08-26T16:03:23.487Z,99.90
2022-08-26T16:05:50.590Z,99.90
2022-08-26T16:08:17.802Z,99.90
2022-08-26T16:10:50.403Z,99.90
2022-08-26T16:13:19.679Z,99.90
2022-08-26T16:15:47.834Z,99.90
2022-08-26T16:18:15.674Z,99.90
2022-08-26T16:21:02.852Z,99.90
2022-08-26T16:23:39.208Z,99.90
2022-08-26T16:26:19.025Z,99.90
2022-08-26T16:28:46.254Z,99.90
2022-08-26T16:31:13.947Z,99.90
2022-08-26T16:33:40.813Z,99.90
2022-08-26T16:36:08.981Z,99.90
2022-08-26T16:38:37.645Z,99.90
2022-08-26T16:41:04.918Z,99.90
2022-08-26T16:43:31.791Z,99.90
2022-08-26T16:45:59.112Z,99.90
2022-08-26T16:48:27.833Z,99.90
2022-08-26T16:50:55.590Z,99.90
2022-08-26T16:53:23.525Z,99.90
2022-08-26T16:55:51.292Z,99.90
2022-08-26T16:58:21.976Z,99.90
2022-08-26T17:00:49.709Z,99.90
2022-08-26T17:03:16.972Z,99.90
2022-08-26T17:05:44.479Z,99.90
2022-08-26T17:08:14.562Z,99.90
2022-08-26T17:10:54.881Z,99.90
2022-08-26T17:13:34.834Z,99.90
2022-08-26T17:16:04.933Z,99.90
2022-08-26T17:18:33.372Z,99.90
2022-08-26T17:21:03.121Z,99.90
2022-08-26T17:23:30.430Z,99.90
2022-08-26T17:25:58.297Z,99.90
2022-08-26T17:28:25.495Z,99.90
2022-08-26T17:30:52.559Z,99.90
2022-08-26T17:33:24.405Z,99.90
2022-08-26T17:35:52.949Z,99.90
2022-08-26T17:38:21.179Z,99.90
2022-08-26T17:40:48.237Z,99.90
2022-08-26T17:43:15.527Z,99.90
2022-08-26T17:45:43.387Z,99.90
2022-08-26T17:48:11.191Z,99.90
2022-08-26T17:50:43.141Z,99.90
2022-08-26T17:53:18.804Z,99.90
2022-08-26T17:55:47.419Z,99.90
2022-08-26T17:58:16.003Z,99.90
2022-08-26T18:00:48.717Z,99.90
2022-08-26T18:03:16.320Z,99.90
2022-08-26T18:05:47.794Z,99.90
2022-08-26T18:08:14.743Z,99.90
2022-08-26T18:10:42.480Z,99.90
2022-08-26T18:13:09.524Z,99.90
2022-08-26T18:15:39.876Z,99.90
2022-08-26T18:18:06.814Z,99.90
2022-08-26T18:20:34.119Z,99.90
2022-08-26T18:23:00.971Z,99.90
2022-08-26T18:25:27.874Z,99.90
2022-08-26T18:27:54.743Z,99.90
2022-08-26T18:30:22.570Z,99.90
2022-08-26T18:32:50.820Z,99.90
2022-08-26T18:35:18.475Z,99.90
2022-08-26T18:37:45.825Z,99.90
2022-08-26T18:40:14.205Z,99.90
2022-08-26T18:42:41.460Z,99.90
2022-08-26T18:45:09.597Z,99.90
2022-08-26T18:47:42.827Z,99.90
2022-08-26T18:50:10.883Z,99.90
2022-08-26T18:52:38.872Z,99.90
2022-08-26T18:55:06.742Z,99.90
2022-08-26T18:57:33.724Z,99.90
2022-08-26T19:00:01.861Z,99.90
2022-08-26T19:02:28.964Z,99.90
2022-08-26T19:04:57.442Z,99.90
2022-08-26T19:07:24.543Z,99.90
2022-08-26T19:09:53.798Z,99.90
2022-08-26T19:12:21.276Z,99.90
2022-08-26T19:14:48.170Z,99.90
2022-08-26T19:17:15.368Z,99.90
2022-08-26T19:19:42.183Z,99.90
2022-08-26T19:22:09.072Z,99.90
2022-08-26T19:24:35.894Z,99.90
2022-08-26T19:27:03.619Z,99.90
2022-08-26T19:29:34.399Z,99.90
2022-08-26T19:32:03.025Z,99.90
2022-08-26T19:34:30.153Z,99.90
2022-08-26T19:36:58.421Z,99.90
2022-08-26T19:39:26.114Z,99.90
2022-08-26T19:41:53.451Z,99.90
2022-08-26T19:44:40.893Z,99.90
2022-08-26T19:47:10.008Z,99.90
2022-08-26T19:49:38.574Z,99.90
2022-08-26T19:52:06.071Z,99.90
2022-08-26T19:54:34.131Z,99.90
2022-08-26T19:57:01.596Z,99.90
2022-08-26T19:59:29.220Z,99.90
2022-08-26T20:02:01.128Z,99.90
2022-08-26T20:04:30.255Z,99.90
2022-08-26T20:06:57.876Z,99.90
2022-08-26T20:09:28.446Z,99.90
2022-08-26T20:11:56.847Z,99.90
2022-08-26T20:14:25.084Z,99.90
2022-08-26T20:16:52.188Z,99.90
2022-08-26T20:19:38.011Z,99.90
2022-08-26T20:22:05.689Z,99.90
2022-08-26T20:24:33.024Z,99.90
2022-08-26T20:27:03.224Z,99.90
2022-08-26T20:29:32.307Z,99.90
2022-08-26T20:31:59.245Z,99.90
2022-08-26T20:34:26.786Z,99.90
2022-08-26T20:36:53.624Z,99.90
2022-08-26T20:39:21.365Z,99.90
2022-08-26T20:41:48.956Z,99.90
2022-08-26T20:44:17.593Z,99.90
2022-08-26T20:46:45.006Z,99.90
2022-08-26T20:49:13.295Z,99.90
2022-08-26T20:51:42.783Z,99.90
2022-08-26T20:54:12.268Z,99.90
2022-08-26T20:56:39.989Z,99.90
2022-08-26T20:59:07.869Z,99.90
2022-08-26T21:01:37.410Z,99.90
2022-08-26T21:04:13.967Z,99.90
2022-08-26T21:06:42.258Z,99.90
2022-08-26T21:09:14.660Z,99.90
2022-08-26T21:11:44.287Z,99.90
2022-08-26T21:14:16.596Z,99.90
2022-08-26T21:16:45.295Z,99.90
2022-08-26T21:19:14.538Z,99.90
2022-08-26T21:21:42.261Z,99.90
2022-08-26T21:24:10.239Z,99.90
2022-08-26T21:26:37.215Z,99.90
2022-08-26T21:29:04.300Z,99.90
2022-08-26T21:31:32.032Z,99.90
2022-08-26T21:33:59.632Z,99.90
2022-08-26T21:36:27.000Z,99.90
2022-08-26T21:38:59.891Z,99.90
2022-08-26T21:41:27.561Z,99.90
2022-08-26T21:43:58.929Z,99.90
2022-08-26T21:46:29.048Z,99.90
2022-08-26T21:49:01.501Z,99.90
2022-08-26T21:51:31.529Z,99.90
2022-08-26T21:53:59.925Z,99.90
2022-08-26T21:56:29.977Z,99.90
2022-08-26T21:58:57.338Z,99.90
2022-08-26T22:01:26.590Z,99.90
2022-08-26T22:03:54.461Z,99.90
2022-08-26T22:06:24.379Z,99.90
2022-08-26T22:08:52.240Z,99.90
2022-08-26T22:11:19.852Z,99.90
2022-08-26T22:13:48.676Z,99.90
2022-08-26T22:16:16.139Z,99.90
2022-08-26T22:18:44.192Z,99.90
2022-08-26T22:21:17.581Z,99.90
2022-08-26T22:23:45.268Z,99.90
2022-08-26T22:26:14.282Z,99.90
2022-08-26T22:28:41.298Z,99.90
2022-08-26T22:31:11.295Z,99.90
2022-08-26T22:33:39.345Z,99.90
2022-08-26T22:36:06.956Z,99.90
2022-08-26T22:38:34.632Z,99.90
2022-08-26T22:41:03.421Z,99.90
2022-08-26T22:43:34.017Z,99.90
2022-08-26T22:46:00.829Z,99.90
2022-08-26T22:48:27.807Z,99.90
2022-08-26T22:51:00.031Z,99.90
2022-08-26T22:53:27.363Z,99.90
2022-08-26T22:55:54.516Z,99.90
2022-08-26T22:58:28.046Z,99.90
2022-08-26T23:00:59.457Z,99.90
2022-08-26T23:03:27.116Z,99.90
2022-08-26T23:05:55.336Z,99.90
2022-08-26T23:08:23.552Z,99.90
2022-08-26T23:10:51.269Z,99.90
2022-08-26T23:13:19.345Z,99.90
2022-08-26T23:15:46.542Z,99.90
2022-08-26T23:18:15.046Z,99.90
2022-08-26T23:20:42.528Z,99.90
2022-08-26T23:23:09.856Z,99.90
2022-08-26T23:25:36.815Z,99.90
2022-08-26T23:28:04.058Z,99.90
2022-08-26T23:30:34.453Z,99.90
2022-08-26T23:33:01.412Z,99.90
2022-08-26T23:35:28.695Z,99.90
2022-08-26T23:37:55.731Z,99.90
2022-08-26T23:40:34.328Z,99.90
2022-08-26T23:43:03.607Z,99.90
2022-08-26T23:45:31.757Z,99.90
2022-08-26T23:47:59.139Z,99.90
2022-08-26T23:50:48.377Z,99.90
2022-08-26T23:53:20.042Z,99.90
2022-08-26T23:55:49.382Z,99.90
2022-08-26T23:58:17.619Z,99.90
